Time,TemperatureF,DewpointF,PressureIn,WindDirection,WindDirectionDegrees,WindSpeedMPH,WindSpeedGustMPH,Humidity,HourlyPrecipIn,Conditions,Clouds,dailyrainin,SoftwareType,DateUTC
2013-02-25 00:05:00,30.6,29.0,30.02,NW,304,2.0,-999.0,93,-99.99,,,0.02,weatherlink.com 1.10,2013-02-25 05:05:00,
2013-02-25 00:35:00,30.8,29.0,30.02,NNW,329,3.0,-999.0,93,-99.99,,,0.02,weatherlink.com 1.10,2013-02-25 05:35:00,
2013-02-25 00:50:00,30.8,29.0,30.03,WNW,284,3.0,-999.0,93,-99.99,,,0.02,weatherlink.com 1.10,2013-02-25 05:50:00,
2013-02-25 01:06:00,30.9,29.0,30.03,WNW,282,4.0,-999.0,93,-99.99,,,0.02,weatherlink.com 1.10,2013-02-25 06:06:00,
2013-02-25 01:21:00,30.9,29.0,30.04,NW,307,3.0,-999.0,93,-99.99,,,0.02,weatherlink.com 1.10,2013-02-25 06:21:00,
2013-02-25 01:36:00,31.0,29.0,30.04,West,281,5.0,-999.0,93,-99.99,,,0.02,weatherlink.com 1.10,2013-02-25 06:36:00,
2013-02-25 01:51:00,31.2,29.0,30.04,WNW,294,4.0,-999.0,93,-99.99,,,0.02,weatherlink.com 1.10,2013-02-25 06:51:00,
2013-02-25 02:06:00,31.2,29.0,30.05,NW,311,2.0,-999.0,92,-99.99,,,0.02,weatherlink.com 1.10,2013-02-25 07:06:00,
2013-02-25 02:21:00,31.3,29.0,30.05,WNW,294,0.0,-999.0,92,-99.99,,,0.02,weatherlink.com 1.10,2013-02-25 07:21:00,
2013-02-25 02:36:00,31.5,30.0,30.05,WNW,296,4.0,-999.0,92,-99.99,,,0.02,weatherlink.com 1.10,2013-02-25 07:36:00,
2013-02-25 03:06:00,31.7,29.0,30.06,WNW,288,2.0,-999.0,91,-99.99,,,0.02,weatherlink.com 1.10,2013-02-25 08:06:00,
2013-02-25 03:21:00,31.8,30.0,30.06,WNW,292,5.0,-999.0,91,-99.99,,,0.02,weatherlink.com 1.10,2013-02-25 08:21:00,
2013-02-25 03:51:00,31.8,29.0,30.06,WNW,296,2.0,-999.0,90,-99.99,,,0.02,weatherlink.com 1.10,2013-02-25 08:51:00,
2013-02-25 04:06:00,31.9,29.0,30.07,NW,321,8.0,-999.0,90,-99.99,,,0.02,weatherlink.com 1.10,2013-02-25 09:06:00,
2013-02-25 04:21:00,31.9,29.0,30.08,NW,311,3.0,-999.0,90,-99.99,,,0.02,weatherlink.com 1.10,2013-02-25 09:21:00,
2013-02-25 04:36:00,31.9,29.0,30.08,NW,321,0.0,-999.0,90,-99.99,,,0.02,weatherlink.com 1.10,2013-02-25 09:36:00,
2013-02-25 05:06:00,32.0,29.0,30.09,NW,312,1.0,-999.0,90,-99.99,,,0.02,weatherlink.com 1.10,2013-02-25 10:06:00,
2013-02-25 05:21:00,32.0,29.0,30.10,NNW,338,2.0,-999.0,90,-99.99,,,0.02,weatherlink.com 1.10,2013-02-25 10:21:00,
2013-02-25 05:36:00,32.0,29.0,30.10,NW,318,5.0,-999.0,90,-99.99,,,0.02,weatherlink.com 1.10,2013-02-25 10:36:00,
2013-02-25 05:51:00,31.9,29.0,30.10,SW,223,0.0,-999.0,89,-99.99,,,0.02,weatherlink.com 1.10,2013-02-25 10:51:00,
2013-02-25 06:06:00,31.9,29.0,30.11,WNW,300,0.0,-999.0,89,-99.99,,,0.02,weatherlink.com 1.10,2013-02-25 11:06:00,
2013-02-25 06:21:00,31.9,29.0,30.11,WNW,286,0.0,-999.0,90,-99.99,,,0.02,weatherlink.com 1.10,2013-02-25 11:21:00,
2013-02-25 06:36:00,31.9,29.0,30.12,West,279,3.0,-999.0,90,-99.99,,,0.02,weatherlink.com 1.10,2013-02-25 11:36:00,
2013-02-25 06:51:00,32.0,29.0,30.12,West,273,1.0,-999.0,90,-99.99,,,0.02,weatherlink.com 1.10,2013-02-25 11:51:00,
2013-02-25 07:06:00,32.0,29.0,30.12,West,269,0.0,-999.0,90,-99.99,,,0.02,weatherlink.com 1.10,2013-02-25 12:06:00,
2013-02-25 07:21:00,32.0,29.0,30.12,West,269,0.0,-999.0,89,-99.99,,,0.02,weatherlink.com 1.10,2013-02-25 12:21:00,
2013-02-25 07:36:00,32.1,30.0,30.13,West,269,3.0,-999.0,90,-99.99,,,0.02,weatherlink.com 1.10,2013-02-25 12:36:00,
2013-02-25 07:51:00,32.1,30.0,30.13,West,269,0.0,-999.0,90,-99.99,,,0.02,weatherlink.com 1.10,2013-02-25 12:51:00,
2013-02-25 08:06:00,32.1,30.0,30.14,West,269,0.0,-999.0,90,-99.99,,,0.02,weatherlink.com 1.10,2013-02-25 13:06:00,
2013-02-25 08:21:00,32.1,30.0,30.14,West,269,0.0,-999.0,90,-99.99,,,0.02,weatherlink.com 1.10,2013-02-25 13:21:00,
2013-02-25 08:36:00,32.2,30.0,30.14,West,271,0.0,-999.0,90,-99.99,,,0.02,weatherlink.com 1.10,2013-02-25 13:36:00,
2013-02-25 08:51:00,32.2,30.0,30.14,West,271,2.0,-999.0,90,-99.99,,,0.02,weatherlink.com 1.10,2013-02-25 13:51:00,
2013-02-25 09:07:00,32.4,30.0,30.15,West,271,0.0,-999.0,90,-99.99,,,0.02,weatherlink.com 1.10,2013-02-25 14:07:00,
2013-02-25 09:22:00,32.8,30.0,30.15,West,273,0.0,-999.0,90,-99.99,,,0.02,weatherlink.com 1.10,2013-02-25 14:22:00,
2013-02-25 09:37:00,33.2,30.0,30.16,NNW,342,3.0,-999.0,89,-99.99,,,0.02,weatherlink.com 1.10,2013-02-25 14:37:00,
2013-02-25 09:52:00,33.8,31.0,30.16,East,84,2.0,-999.0,88,-99.99,,,0.02,weatherlink.com 1.10,2013-02-25 14:52:00,
2013-02-25 10:07:00,34.2,30.0,30.16,North,10,2.0,-999.0,85,-99.99,,,0.02,weatherlink.com 1.10,2013-02-25 15:07:00,
2013-02-25 10:22:00,34.6,30.0,30.16,North,11,1.0,-999.0,83,-99.99,,,0.02,weatherlink.com 1.10,2013-02-25 15:22:00,
2013-02-25 10:52:00,35.5,30.0,30.17,North,11,0.0,-999.0,79,-99.99,,,0.03,weatherlink.com 1.10,2013-02-25 15:52:00,
2013-02-25 11:07:00,35.9,29.0,30.17,North,5,2.0,-999.0,76,-99.99,,,0.03,weatherlink.com 1.10,2013-02-25 16:07:00,
2013-02-25 11:37:00,36.8,29.0,30.18,North,355,4.0,-999.0,74,-99.99,,,0.04,weatherlink.com 1.10,2013-02-25 16:37:00,
2013-02-25 11:52:00,36.6,28.0,30.18,North,355,4.0,-999.0,72,-99.99,,,0.04,weatherlink.com 1.10,2013-02-25 16:52:00,
2013-02-25 12:07:00,36.6,28.0,30.19,North,355,3.0,-999.0,72,-99.99,,,0.04,weatherlink.com 1.10,2013-02-25 17:07:00,
2013-02-25 12:22:00,36.8,28.0,30.20,WNW,294,2.0,-999.0,71,-99.99,,,0.04,weatherlink.com 1.10,2013-02-25 17:22:00,
2013-02-25 12:37:00,36.8,28.0,30.20,NNE,22,0.0,-999.0,70,-99.99,,,0.04,weatherlink.com 1.10,2013-02-25 17:37:00,
2013-02-25 12:52:00,37.3,29.0,30.20,NW,313,0.0,-999.0,71,-99.99,,,0.04,weatherlink.com 1.10,2013-02-25 17:52:00,
2013-02-25 13:22:00,38.0,29.0,30.20,NNW,328,1.0,-999.0,70,-99.99,,,0.04,weatherlink.com 1.10,2013-02-25 18:22:00,
2013-02-25 13:37:00,38.0,29.0,30.20,NW,315,2.0,-999.0,71,-99.99,,,0.04,weatherlink.com 1.10,2013-02-25 18:37:00,
2013-02-25 13:52:00,37.7,29.0,30.20,North,360,0.0,-999.0,72,-99.99,,,0.04,weatherlink.com 1.10,2013-02-25 18:52:00,
2013-02-25 14:07:00,37.9,29.0,30.20,NW,304,1.0,-999.0,71,-99.99,,,0.00,weatherlink.com 1.10,2013-02-25 19:07:00,
2013-02-25 14:23:00,38.5,30.0,30.20,NNE,13,2.0,-999.0,72,-99.99,,,0.00,weatherlink.com 1.10,2013-02-25 19:23:00,
2013-02-25 14:38:00,38.5,29.0,30.20,North,360,3.0,-999.0,70,-99.99,,,0.00,weatherlink.com 1.10,2013-02-25 19:38:00,
2013-02-25 14:53:00,38.3,29.0,30.20,North,5,0.0,-999.0,70,-99.99,,,0.00,weatherlink.com 1.10,2013-02-25 19:53:00,
2013-02-25 15:08:00,37.8,29.0,30.19,North,5,0.0,-999.0,71,-99.99,,,0.00,weatherlink.com 1.10,2013-02-25 20:08:00,
2013-02-25 15:23:00,37.5,29.0,30.19,NNW,339,1.0,-999.0,70,-99.99,,,0.00,weatherlink.com 1.10,2013-02-25 20:23:00,
2013-02-25 15:38:00,37.5,28.0,30.19,WNW,286,0.0,-999.0,68,-99.99,,,0.00,weatherlink.com 1.10,2013-02-25 20:38:00,
2013-02-25 15:53:00,37.7,28.0,30.19,NW,308,0.0,-999.0,68,-99.99,,,0.00,weatherlink.com 1.10,2013-02-25 20:53:00,
2013-02-25 16:08:00,37.7,28.0,30.20,NNW,333,2.0,-999.0,67,-99.99,,,0.00,weatherlink.com 1.10,2013-02-25 21:08:00,
2013-02-25 16:23:00,37.9,27.0,30.20,NNW,346,0.0,-999.0,65,-99.99,,,0.00,weatherlink.com 1.10,2013-02-25 21:23:00,
2013-02-25 16:38:00,37.4,26.0,30.20,NNE,13,3.0,-999.0,64,-99.99,,,0.00,weatherlink.com 1.10,2013-02-25 21:38:00,
2013-02-25 17:08:00,36.7,26.0,30.20,North,10,0.0,-999.0,65,-99.99,,,0.00,weatherlink.com 1.10,2013-02-25 22:08:00,
2013-02-25 17:23:00,36.2,26.0,30.21,NNE,17,0.0,-999.0,67,-99.99,,,0.00,weatherlink.com 1.10,2013-02-25 22:23:00,
2013-02-25 17:38:00,35.8,26.0,30.21,NNE,17,0.0,-999.0,68,-99.99,,,0.00,weatherlink.com 1.10,2013-02-25 22:38:00,
2013-02-25 18:23:00,35.0,28.0,30.21,NE,53,0.0,-999.0,74,-99.99,,,0.00,weatherlink.com 1.10,2013-02-25 23:23:00,
2013-02-25 18:53:00,34.5,28.0,30.22,NE,52,0.0,-999.0,76,-99.99,,,0.00,weatherlink.com 1.10,2013-02-25 23:53:00,
2013-02-25 19:08:00,34.4,28.0,30.22,NE,52,0.0,-999.0,77,-99.99,,,0.00,weatherlink.com 1.10,2013-02-26 00:08:00,
2013-02-25 19:23:00,34.3,28.0,30.23,NE,52,0.0,-999.0,78,-99.99,,,0.00,weatherlink.com 1.10,2013-02-26 00:23:00,
2013-02-25 19:38:00,34.0,28.0,30.23,NE,52,0.0,-999.0,78,-99.99,,,0.00,weatherlink.com 1.10,2013-02-26 00:38:00,
2013-02-25 19:53:00,33.5,28.0,30.23,NE,53,0.0,-999.0,79,-99.99,,,0.00,weatherlink.com 1.10,2013-02-26 00:53:00,
2013-02-25 20:08:00,33.1,28.0,30.23,NE,53,0.0,-999.0,81,-99.99,,,0.00,weatherlink.com 1.10,2013-02-26 01:08:00,
2013-02-25 20:38:00,33.4,28.0,30.22,NE,53,0.0,-999.0,81,-99.99,,,0.00,weatherlink.com 1.10,2013-02-26 01:38:00,
2013-02-25 20:53:00,33.0,28.0,30.22,NE,53,0.0,-999.0,82,-99.99,,,0.00,weatherlink.com 1.10,2013-02-26 01:53:00,
2013-02-25 21:09:00,32.3,28.0,30.22,NE,53,0.0,-999.0,84,-99.99,,,0.00,weatherlink.com 1.10,2013-02-26 02:09:00,
2013-02-25 21:24:00,32.5,28.0,30.22,NE,53,0.0,-999.0,84,-99.99,,,0.00,weatherlink.com 1.10,2013-02-26 02:24:00,
2013-02-25 21:39:00,32.7,28.0,30.23,NE,53,0.0,-999.0,84,-99.99,,,0.00,weatherlink.com 1.10,2013-02-26 02:39:00,
2013-02-25 21:54:00,32.7,28.0,30.23,NE,53,0.0,-999.0,84,-99.99,,,0.00,weatherlink.com 1.10,2013-02-26 02:54:00,
2013-02-25 22:09:00,32.3,28.0,30.23,NE,53,0.0,-999.0,85,-99.99,,,0.00,weatherlink.com 1.10,2013-02-26 03:09:00,
2013-02-25 22:24:00,31.9,28.0,30.23,NE,53,0.0,-999.0,85,-99.99,,,0.00,weatherlink.com 1.10,2013-02-26 03:24:00,
2013-02-25 22:39:00,31.4,28.0,30.23,NE,53,0.0,-999.0,86,-99.99,,,0.00,weatherlink.com 1.10,2013-02-26 03:39:00,
2013-02-25 22:54:00,30.7,27.0,30.23,NE,53,0.0,-999.0,87,-99.99,,,0.00,weatherlink.com 1.10,2013-02-26 03:54:00,
2013-02-25 23:09:00,30.7,27.0,30.23,NE,53,0.0,-999.0,87,-99.99,,,0.00,weatherlink.com 1.10,2013-02-26 04:09:00,
2013-02-25 23:24:00,30.0,27.0,30.23,NE,53,0.0,-999.0,87,-99.99,,,0.00,weatherlink.com 1.10,2013-02-26 04:24:00,
2013-02-25 23:39:00,29.6,27.0,30.23,NE,53,0.0,-999.0,88,-99.99,,,0.00,weatherlink.com 1.10,2013-02-26 04:39:00,
2013-02-25 23:54:00,29.5,26.0,30.22,NE,53,0.0,-999.0,88,-99.99,,,0.00,weatherlink.com 1.10,2013-02-26 04:54:00,